createdAt,value
2023-05-02T00:02:21.890Z,99314.63
2023-05-02T00:04:49.325Z,99316.72
2023-05-02T00:07:17.000Z,99314.63
2023-05-02T00:09:44.351Z,99308.91
2023-05-02T00:12:11.540Z,99315.78
2023-05-02T00:14:38.930Z,99310.75
2023-05-02T00:17:06.155Z,99312.25
2023-05-02T00:19:40.080Z,99310.28
2023-05-02T00:22:07.339Z,99314.34
2023-05-02T00:24:34.805Z,99315.84
2023-05-02T00:27:02.158Z,99319.88
2023-05-02T00:29:29.570Z,99323.25
2023-05-02T00:31:57.946Z,99321.25
2023-05-02T00:34:31.243Z,99325.41
2023-05-02T00:36:59.034Z,99327.38
2023-05-02T00:39:26.726Z,99329.19
2023-05-02T00:41:58.899Z,99322.34
2023-05-02T00:44:26.519Z,99317.00
2023-05-02T00:46:55.105Z,99320.56
2023-05-02T00:49:22.965Z,99314.19
2023-05-02T00:51:50.695Z,99315.22
2023-05-02T00:54:18.588Z,99323.69
2023-05-02T00:56:46.426Z,99319.25
2023-05-02T00:59:15.592Z,99328.75
2023-05-02T01:02:17.077Z,99325.28
2023-05-02T01:05:21.093Z,99332.94
2023-05-02T01:08:01.033Z,99328.94
2023-05-02T01:10:47.480Z,99326.56
2023-05-02T01:13:25.829Z,99331.31
2023-05-02T01:15:58.323Z,99335.84
2023-05-02T01:18:32.602Z,99330.09
2023-05-02T01:21:06.366Z,99321.94
2023-05-02T01:23:52.511Z,99325.06
2023-05-02T01:26:48.807Z,99327.59
2023-05-02T01:29:18.316Z,99326.41
2023-05-02T01:31:50.689Z,99322.78
2023-05-02T01:34:21.943Z,99318.34
2023-05-02T01:36:52.032Z,99314.63
2023-05-02T01:39:26.213Z,99326.94
2023-05-02T01:41:58.262Z,99322.44
2023-05-02T01:44:29.119Z,99326.94
2023-05-02T01:46:58.013Z,99323.25
2023-05-02T01:49:27.239Z,99329.03
2023-05-02T01:51:56.359Z,99330.06
2023-05-02T01:54:26.687Z,99331.53
2023-05-02T01:56:56.513Z,99330.34
2023-05-02T01:59:27.268Z,99325.00
2023-05-02T02:01:56.577Z,99327.91
2023-05-02T02:04:26.817Z,99334.06
2023-05-02T02:07:03.249Z,99324.25
2023-05-02T02:09:32.014Z,99328.41
2023-05-02T02:12:40.428Z,99328.47
2023-05-02T02:15:19.619Z,99324.38
2023-05-02T02:17:57.344Z,99326.50
2023-05-02T02:20:26.897Z,99340.72
2023-05-02T02:22:56.168Z,99339.94
2023-05-02T02:25:25.446Z,99337.94
2023-05-02T02:27:53.580Z,99343.09
2023-05-02T02:30:21.341Z,99331.22
2023-05-02T02:32:48.868Z,99329.97
2023-05-02T02:35:16.265Z,99341.66
2023-05-02T02:37:59.086Z,99336.56
2023-05-02T02:40:40.848Z,99342.75
2023-05-02T02:43:42.845Z,99337.88
2023-05-02T02:46:49.031Z,99347.78
2023-05-02T02:49:25.541Z,99348.22
2023-05-02T02:52:12.203Z,99354.81
2023-05-02T02:54:52.724Z,99359.69
2023-05-02T02:57:37.652Z,99363.41
2023-05-02T03:00:15.317Z,99356.84
2023-05-02T03:02:45.353Z,99357.72
2023-05-02T03:05:14.470Z,99355.91
2023-05-02T03:07:42.038Z,99357.31
2023-05-02T03:10:09.654Z,99366.56
2023-05-02T03:12:43.826Z,99359.97
2023-05-02T03:15:29.845Z,99364.25
2023-05-02T03:17:57.138Z,99370.84
2023-05-02T03:20:24.487Z,99363.06
2023-05-02T03:22:52.233Z,99359.78
2023-05-02T03:25:19.788Z,99366.78
2023-05-02T03:27:49.620Z,99357.38
2023-05-02T03:30:17.074Z,99376.44
2023-05-02T03:32:44.284Z,99374.25
2023-05-02T03:35:11.793Z,99373.81
2023-05-02T03:37:43.078Z,99380.81
2023-05-02T03:40:11.073Z,99368.94
2023-05-02T03:42:41.394Z,99367.91
2023-05-02T03:45:20.276Z,99374.06
2023-05-02T03:47:48.974Z,99377.34
2023-05-02T03:50:16.560Z,99372.03
2023-05-02T03:52:47.521Z,99375.13
2023-05-02T03:55:18.544Z,99365.31
2023-05-02T03:57:45.966Z,99354.19
2023-05-02T04:00:14.701Z,99367.72
2023-05-02T04:02:49.710Z,99368.53
2023-05-02T04:05:21.681Z,99359.13
2023-05-02T04:07:50.490Z,99370.81
2023-05-02T04:10:18.364Z,99362.38
2023-05-02T04:12:54.195Z,99357.47
2023-05-02T04:15:22.493Z,99355.19
2023-05-02T04:17:52.259Z,99353.75
2023-05-02T04:20:21.021Z,99364.78
2023-05-02T04:22:51.066Z,99354.94
2023-05-02T04:25:18.974Z,99357.41
2023-05-02T04:27:47.293Z,99360.25
2023-05-02T04:30:18.175Z,99361.22
2023-05-02T04:32:53.692Z,99356.91
2023-05-02T04:35:21.625Z,99356.84
2023-05-02T04:37:49.059Z,99357.63
2023-05-02T04:40:17.700Z,99353.09
2023-05-02T04:42:47.691Z,99358.75
2023-05-02T04:45:21.555Z,99353.75
2023-05-02T04:47:49.868Z,99356.09
2023-05-02T04:50:17.595Z,99356.25
2023-05-02T04:52:44.927Z,99363.53
2023-05-02T04:55:12.783Z,99358.09
2023-05-02T04:57:40.317Z,99351.75
2023-05-02T05:00:11.629Z,99351.78
2023-05-02T05:02:41.726Z,99363.53
2023-05-02T05:05:12.267Z,99353.63
2023-05-02T05:07:39.950Z,99356.50
2023-05-02T05:10:11.163Z,99357.50
2023-05-02T05:12:44.279Z,99359.31
2023-05-02T05:15:12.228Z,99357.88
2023-05-02T05:17:44.595Z,99358.84
2023-05-02T05:20:12.497Z,99366.03
2023-05-02T05:22:41.727Z,99354.97
2023-05-02T05:25:11.731Z,99358.81
2023-05-02T05:27:39.758Z,99362.09
2023-05-02T05:30:09.263Z,99359.63
2023-05-02T05:32:37.233Z,99354.00
2023-05-02T05:35:05.274Z,99354.44
2023-05-02T05:37:32.821Z,99354.41
2023-05-02T05:40:02.335Z,99349.06
2023-05-02T05:42:30.779Z,99357.06
2023-05-02T05:45:01.936Z,99353.94
2023-05-02T05:47:29.429Z,99355.91
2023-05-02T05:49:57.594Z,99362.81
2023-05-02T05:52:29.161Z,99360.22
2023-05-02T05:54:59.709Z,99357.00
2023-05-02T05:57:28.713Z,99357.41
2023-05-02T05:59:57.622Z,99358.78
2023-05-02T06:02:25.207Z,99358.59
2023-05-02T06:04:52.924Z,99357.22
2023-05-02T06:07:23.305Z,99357.97
2023-05-02T06:09:51.001Z,99355.75
2023-05-02T06:12:18.817Z,99355.06
2023-05-02T06:14:47.084Z,99359.81
2023-05-02T06:17:14.660Z,99357.56
2023-05-02T06:19:42.275Z,99353.94
2023-05-02T06:22:13.518Z,99359.41
2023-05-02T06:24:41.174Z,99358.94
2023-05-02T06:27:08.284Z,99355.19
2023-05-02T06:29:35.789Z,99350.84
2023-05-02T06:32:04.080Z,99355.16
2023-05-02T06:34:34.459Z,99349.16
2023-05-02T06:37:03.478Z,99354.56
2023-05-02T06:39:30.896Z,99356.69
2023-05-02T06:41:58.664Z,99355.03
2023-05-02T06:44:27.284Z,99355.50
2023-05-02T06:46:55.744Z,99358.72
2023-05-02T06:49:24.196Z,99352.19
2023-05-02T06:51:51.339Z,99350.84
2023-05-02T06:54:18.676Z,99356.25
2023-05-02T06:56:46.017Z,99353.81
2023-05-02T06:59:13.436Z,99358.13
2023-05-02T07:01:40.519Z,99350.47
2023-05-02T07:04:07.938Z,99357.97
2023-05-02T07:06:35.226Z,99357.88
2023-05-02T07:09:02.582Z,99348.56
2023-05-02T07:11:29.661Z,99345.38
2023-05-02T07:13:57.812Z,99354.63
2023-05-02T07:16:25.036Z,99357.72
2023-05-02T07:18:52.448Z,99359.97
2023-05-02T07:21:19.575Z,99364.41
2023-05-02T07:23:46.978Z,99368.22
2023-05-02T07:26:14.154Z,99365.28
2023-05-02T07:28:41.819Z,99362.06
2023-05-02T07:31:08.939Z,99370.75
2023-05-02T07:33:36.343Z,99377.84
2023-05-02T07:36:03.870Z,99374.06
2023-05-02T07:38:31.168Z,99373.81
2023-05-02T07:41:00.269Z,99377.34
2023-05-02T07:43:29.359Z,99377.88
2023-05-02T07:45:56.497Z,99386.25
2023-05-02T07:48:26.069Z,99385.97
2023-05-02T07:50:54.814Z,99371.63
2023-05-02T07:53:22.090Z,99382.19
2023-05-02T07:55:49.206Z,99381.63
2023-05-02T07:58:16.772Z,99375.16
2023-05-02T08:00:44.023Z,99378.09
2023-05-02T08:03:11.670Z,99382.69
2023-05-02T08:05:38.857Z,99388.06
2023-05-02T08:08:06.426Z,99386.94
2023-05-02T08:10:33.660Z,99391.22
2023-05-02T08:13:01.278Z,99397.16
2023-05-02T08:15:28.528Z,99386.00
2023-05-02T08:17:55.997Z,99387.03
2023-05-02T08:20:23.314Z,99384.78
2023-05-02T08:22:51.407Z,99384.91
2023-05-02T08:25:18.590Z,99376.19
2023-05-02T08:27:46.026Z,99389.47
2023-05-02T08:30:13.536Z,99395.06
2023-05-02T08:32:40.827Z,99396.09
2023-05-02T08:35:08.999Z,99392.94
2023-05-02T08:37:37.043Z,99394.16
2023-05-02T08:40:05.124Z,99390.44
2023-05-02T08:42:34.732Z,99391.25
2023-05-02T08:45:02.936Z,99396.97
2023-05-02T08:47:32.503Z,99386.69
2023-05-02T08:50:01.759Z,99390.72
2023-05-02T08:52:32.614Z,99389.38
2023-05-02T08:55:03.365Z,99386.63
2023-05-02T08:57:31.780Z,99395.88
2023-05-02T08:59:59.630Z,99385.56
2023-05-02T09:02:51.316Z,99386.38
2023-05-02T09:05:24.793Z,99392.03
2023-05-02T09:07:52.721Z,99385.81
2023-05-02T09:10:21.753Z,99391.50
2023-05-02T09:12:49.238Z,99394.72
2023-05-02T09:15:20.038Z,99405.88
2023-05-02T09:17:49.055Z,99405.06
2023-05-02T09:20:17.367Z,99407.78
2023-05-02T09:22:52.824Z,99408.59
2023-05-02T09:25:21.491Z,99400.97
2023-05-02T09:27:54.129Z,99408.25
2023-05-02T09:30:26.497Z,99407.13
2023-05-02T09:32:57.347Z,99410.59
2023-05-02T09:35:25.890Z,99407.81
2023-05-02T09:37:57.654Z,99403.66
2023-05-02T09:40:25.721Z,99412.13
2023-05-02T09:42:53.068Z,99404.81
2023-05-02T09:45:25.974Z,99404.06
2023-05-02T09:47:54.271Z,99396.09
2023-05-02T09:50:38.776Z,99397.16
2023-05-02T09:53:11.143Z,99398.78
2023-05-02T09:55:38.413Z,99385.75
2023-05-02T09:58:06.005Z,99375.97
2023-05-02T10:00:46.522Z,99381.06
2023-05-02T10:03:17.824Z,99380.72
2023-05-02T10:05:47.086Z,99369.28
2023-05-02T10:08:18.449Z,99375.41
2023-05-02T10:10:56.621Z,99369.91
2023-05-02T10:13:31.973Z,99371.97
2023-05-02T10:16:07.288Z,99359.44
2023-05-02T10:19:07.448Z,99367.91
2023-05-02T10:21:36.906Z,99361.44
2023-05-02T10:24:05.900Z,99357.25
2023-05-02T10:26:36.169Z,99355.63
2023-05-02T10:29:04.031Z,99362.38
2023-05-02T10:31:35.081Z,99363.66
2023-05-02T10:34:05.085Z,99371.69
2023-05-02T10:36:33.605Z,99366.53
2023-05-02T10:39:02.646Z,99363.47
2023-05-02T10:41:34.302Z,99381.31
2023-05-02T10:44:07.367Z,99361.69
2023-05-02T10:46:43.411Z,99368.31
2023-05-02T10:49:13.492Z,99363.63
2023-05-02T10:51:42.731Z,99362.25
2023-05-02T10:54:24.110Z,99361.13
2023-05-02T10:57:09.548Z,99352.06
2023-05-02T10:59:46.428Z,99354.34
2023-05-02T11:02:27.711Z,99347.53
2023-05-02T11:05:07.589Z,99344.31
2023-05-02T11:07:38.076Z,99343.38
2023-05-02T11:10:17.959Z,99342.41
2023-05-02T11:13:00.898Z,99337.41
2023-05-02T11:15:28.833Z,99338.69
2023-05-02T11:18:13.211Z,99335.34
2023-05-02T11:20:43.505Z,99340.19
2023-05-02T11:23:16.798Z,99333.38
2023-05-02T11:25:50.799Z,99327.56
2023-05-02T11:28:36.913Z,99340.81
2023-05-02T11:31:07.928Z,99345.69
2023-05-02T11:33:35.373Z,99340.56
2023-05-02T11:36:03.162Z,99343.78
2023-05-02T11:38:38.855Z,99346.06
2023-05-02T11:41:06.597Z,99338.75
2023-05-02T11:43:33.809Z,99332.44
2023-05-02T11:46:03.780Z,99330.97
2023-05-02T11:48:31.515Z,99328.00
2023-05-02T11:51:06.991Z,99325.38
2023-05-02T11:53:40.479Z,99325.81
2023-05-02T11:56:08.986Z,99330.59
2023-05-02T11:58:36.102Z,99338.09
2023-05-02T12:01:17.349Z,99340.94
2023-05-02T12:03:45.091Z,99342.50
2023-05-02T12:06:21.070Z,99350.16
2023-05-02T12:08:49.181Z,99347.81
2023-05-02T12:11:17.326Z,99356.09
2023-05-02T12:13:49.972Z,99350.78
2023-05-02T12:16:19.777Z,99348.69
2023-05-02T12:18:48.573Z,99362.06
2023-05-02T12:21:18.188Z,99362.88
2023-05-02T12:23:45.854Z,99357.41
2023-05-02T12:26:29.467Z,99367.72
2023-05-02T12:28:58.215Z,99363.22
2023-05-02T12:31:31.490Z,99369.97
2023-05-02T12:34:00.685Z,99366.75
2023-05-02T12:36:30.983Z,99371.59
2023-05-02T12:38:59.945Z,99373.50
2023-05-02T12:41:45.930Z,99375.75
2023-05-02T12:44:13.097Z,99374.63
2023-05-02T12:47:00.924Z,99387.84
2023-05-02T12:49:28.505Z,99386.22
2023-05-02T12:51:56.322Z,99385.59
2023-05-02T12:54:23.587Z,99394.75
2023-05-02T12:56:52.225Z,99394.84
2023-05-02T12:59:28.968Z,99408.00
2023-05-02T13:01:57.290Z,99411.78
2023-05-02T13:04:40.094Z,99408.84
2023-05-02T13:07:08.120Z,99422.91
2023-05-02T13:09:35.190Z,99422.03
2023-05-02T13:12:03.779Z,99427.19
2023-05-02T13:14:31.144Z,99437.09
2023-05-02T13:16:59.188Z,99424.16
2023-05-02T13:19:31.123Z,99426.63
2023-05-02T13:21:59.106Z,99444.84
2023-05-02T13:24:26.260Z,99471.50
2023-05-02T13:26:53.831Z,99492.34
2023-05-02T13:29:21.053Z,99488.97
2023-05-02T13:31:48.654Z,99508.66
2023-05-02T13:34:15.906Z,99521.06
2023-05-02T13:36:46.081Z,99518.22
2023-05-02T13:39:16.251Z,99527.16
2023-05-02T13:41:43.614Z,99525.25
2023-05-02T13:44:10.689Z,99517.81
2023-05-02T13:46:38.431Z,99516.16
2023-05-02T13:49:06.021Z,99514.16
2023-05-02T13:51:33.901Z,99517.25
2023-05-02T13:54:02.547Z,99517.91
2023-05-02T13:56:29.860Z,99533.97
2023-05-02T13:58:57.235Z,99535.63
2023-05-02T14:01:26.747Z,99538.63
2023-05-02T14:03:54.608Z,99531.28
2023-05-02T14:06:22.152Z,99515.84
2023-05-02T14:08:51.182Z,99499.88
2023-05-02T14:11:18.543Z,99484.19
2023-05-02T14:13:45.955Z,99490.19
2023-05-02T14:16:13.331Z,99493.56
2023-05-02T14:18:40.785Z,99490.94
2023-05-02T14:21:08.359Z,99483.41
2023-05-02T14:23:35.803Z,99476.88
2023-05-02T14:26:03.994Z,99474.69
2023-05-02T14:28:31.184Z,99456.34
2023-05-02T14:30:58.756Z,99449.84
2023-05-02T14:33:26.274Z,99439.56
2023-05-02T14:35:53.659Z,99449.03
2023-05-02T14:38:21.542Z,99450.94
2023-05-02T14:40:49.028Z,99455.25
2023-05-02T14:43:16.146Z,99450.13
2023-05-02T14:45:43.496Z,99449.84
2023-05-02T14:48:11.717Z,99465.53
2023-05-02T14:50:39.688Z,99462.59
2023-05-02T14:53:07.006Z,99462.84
2023-05-02T14:55:40.849Z,99460.66
2023-05-02T14:58:10.324Z,99466.63
2023-05-02T15:00:38.630Z,99476.34
2023-05-02T15:03:08.112Z,99479.59
2023-05-02T15:05:37.126Z,99480.69
2023-05-02T15:08:05.210Z,99487.19
2023-05-02T15:10:36.889Z,99490.94
2023-05-02T15:13:04.772Z,99491.47
2023-05-02T15:15:32.207Z,99493.38
2023-05-02T15:17:59.558Z,99505.00
2023-05-02T15:20:26.987Z,99499.31
2023-05-02T15:22:54.197Z,99509.34
2023-05-02T15:25:21.702Z,99513.69
2023-05-02T15:27:48.833Z,99518.53
2023-05-02T15:30:17.868Z,99527.22
2023-05-02T15:32:45.394Z,99539.13
2023-05-02T15:35:12.812Z,99539.41
2023-05-02T15:37:40.024Z,99550.50
2023-05-02T15:40:08.428Z,99560.81
2023-05-02T15:42:37.163Z,99564.06
2023-05-02T15:45:05.602Z,99571.63
2023-05-02T15:47:33.103Z,99573.00
2023-05-02T15:50:00.976Z,99561.34
2023-05-02T15:52:28.430Z,99567.06
2023-05-02T15:54:56.172Z,99566.75
2023-05-02T15:57:23.496Z,99567.88
2023-05-02T15:59:50.810Z,99564.63
2023-05-02T16:02:18.379Z,99572.22
2023-05-02T16:04:46.526Z,99576.81
2023-05-02T16:07:13.948Z,99575.69
2023-05-02T16:09:42.458Z,99583.28
2023-05-02T16:12:10.271Z,99585.16
2023-05-02T16:14:37.875Z,99590.00
2023-05-02T16:17:05.133Z,99597.06
2023-05-02T16:19:33.255Z,99601.38
2023-05-02T16:22:02.296Z,99627.63
2023-05-02T16:24:29.801Z,99635.44
2023-05-02T16:26:57.066Z,99651.16
2023-05-02T16:29:24.463Z,99663.31
2023-05-02T16:31:51.942Z,99670.59
2023-05-02T16:34:19.410Z,99662.47
2023-05-02T16:36:46.805Z,99679.25
2023-05-02T16:39:14.174Z,99668.94
2023-05-02T16:41:41.725Z,99686.75
2023-05-02T16:44:10.406Z,99682.97
2023-05-02T16:46:37.695Z,99681.88
2023-05-02T16:49:06.768Z,99687.81
2023-05-02T16:51:34.048Z,99681.28
2023-05-02T16:54:01.548Z,99681.78
2023-05-02T16:56:29.365Z,99694.72
2023-05-02T16:58:56.884Z,99692.00
2023-05-02T17:01:24.396Z,99694.72
2023-05-02T17:03:51.800Z,99699.56
2023-05-02T17:06:19.008Z,99707.66
2023-05-02T17:08:46.361Z,99718.41
2023-05-02T17:11:13.523Z,99721.53
2023-05-02T17:13:42.253Z,99735.00
2023-05-02T17:16:09.907Z,99750.13
2023-05-02T17:18:37.396Z,99753.81
2023-05-02T17:21:04.816Z,99745.66
2023-05-02T17:23:32.497Z,99762.84
2023-05-02T17:25:59.709Z,99763.91
2023-05-02T17:28:27.196Z,99764.13
2023-05-02T17:30:54.734Z,99772.84
2023-05-02T17:33:22.421Z,99767.38
2023-05-02T17:35:50.125Z,99779.84
2023-05-02T17:38:17.634Z,99777.06
2023-05-02T17:40:44.809Z,99778.56
2023-05-02T17:43:12.250Z,99795.31
2023-05-02T17:45:41.539Z,99786.09
2023-05-02T17:48:08.913Z,99800.69
2023-05-02T17:50:40.466Z,99804.13
2023-05-02T17:53:08.380Z,99801.69
2023-05-02T17:55:39.470Z,99803.00
2023-05-02T17:58:07.228Z,99806.75
2023-05-02T18:00:34.393Z,99800.56
2023-05-02T18:03:02.598Z,99807.00
2023-05-02T18:05:29.832Z,99805.13
2023-05-02T18:07:59.062Z,99806.19
2023-05-02T18:10:26.310Z,99796.69
2023-05-02T18:12:53.764Z,99795.88
2023-05-02T18:15:21.271Z,99789.69
2023-05-02T18:17:48.595Z,99784.22
2023-05-02T18:20:15.780Z,99772.47
2023-05-02T18:22:43.212Z,99756.34
2023-05-02T18:25:10.515Z,99738.34
2023-05-02T18:27:37.989Z,99744.81
2023-05-02T18:30:07.320Z,99743.22
2023-05-02T18:32:35.241Z,99743.22
2023-05-02T18:35:04.255Z,99732.38
2023-05-02T18:37:31.969Z,99710.66
2023-05-02T18:39:59.306Z,99693.47
2023-05-02T18:42:27.816Z,99711.63
2023-05-02T18:44:55.774Z,99727.56
2023-05-02T18:47:24.528Z,99738.53
2023-05-02T18:49:56.278Z,99749.59
2023-05-02T18:52:24.852Z,99762.84
2023-05-02T18:54:51.964Z,99768.38
2023-05-02T18:57:19.377Z,99779.72
2023-05-02T18:59:46.483Z,99788.97
2023-05-02T19:02:15.538Z,99797.63
2023-05-02T19:04:42.787Z,99810.03
2023-05-02T19:07:10.147Z,99803.47
2023-05-02T19:09:37.352Z,99803.19
2023-05-02T19:12:05.633Z,99809.34
2023-05-02T19:14:33.424Z,99806.09
2023-05-02T19:17:01.027Z,99807.66
2023-05-02T19:19:28.312Z,99813.53
2023-05-02T19:21:55.736Z,99815.16
2023-05-02T19:24:22.843Z,99816.22
2023-05-02T19:26:50.249Z,99822.06
2023-05-02T19:29:17.394Z,99819.38
2023-05-02T19:31:45.237Z,99822.56
2023-05-02T19:34:12.539Z,99828.91
2023-05-02T19:36:40.317Z,99834.78
2023-05-02T19:39:07.750Z,99837.16
2023-05-02T19:41:35.252Z,99844.41
2023-05-02T19:44:02.400Z,99839.03
2023-05-02T19:46:30.214Z,99839.28
2023-05-02T19:48:57.538Z,99842.75
2023-05-02T19:51:26.619Z,99849.44
2023-05-02T19:53:54.184Z,99841.63
2023-05-02T19:56:21.702Z,99851.81
2023-05-02T19:58:48.839Z,99850.19
2023-05-02T20:01:16.311Z,99850.66
2023-05-02T20:03:43.791Z,99848.47
2023-05-02T20:06:11.333Z,99844.84
2023-05-02T20:08:38.459Z,99842.41
2023-05-02T20:11:06.143Z,99837.50
2023-05-02T20:13:33.253Z,99841.81
2023-05-02T20:16:00.844Z,99838.31
2023-05-02T20:18:27.992Z,99840.41
2023-05-02T20:20:55.429Z,99841.25
2023-05-02T20:23:22.572Z,99845.00
2023-05-02T20:25:50.484Z,99851.44
2023-05-02T20:28:17.520Z,99856.81
2023-05-02T20:30:44.960Z,99863.25
2023-05-02T20:33:16.210Z,99862.09
2023-05-02T20:35:45.376Z,99872.28
2023-05-02T20:38:12.719Z,99875.47
2023-05-02T20:40:42.473Z,99863.53
2023-05-02T20:43:09.649Z,99869.97
2023-05-02T20:45:38.713Z,99872.09
2023-05-02T20:48:06.430Z,99871.53
2023-05-02T20:50:33.888Z,99875.25
2023-05-02T20:53:01.029Z,99889.78
2023-05-02T20:55:28.825Z,99884.63
2023-05-02T20:57:55.959Z,99893.97
2023-05-02T21:00:23.369Z,99889.06
2023-05-02T21:02:50.611Z,99892.81
2023-05-02T21:05:18.153Z,99892.81
2023-05-02T21:07:45.666Z,99890.59
2023-05-02T21:10:13.466Z,99894.84
2023-05-02T21:12:40.734Z,99899.63
2023-05-02T21:15:08.642Z,99901.72
2023-05-02T21:17:41.022Z,99904.66
2023-05-02T21:20:09.775Z,99898.47
2023-05-02T21:22:37.118Z,99904.28
2023-05-02T21:25:05.055Z,99901.84
2023-05-02T21:27:32.489Z,99895.06
2023-05-02T21:30:00.025Z,99889.13
2023-05-02T21:32:28.614Z,99891.22
2023-05-02T21:34:56.204Z,99898.22
2023-05-02T21:37:23.775Z,99899.53
2023-05-02T21:39:51.205Z,99900.81
2023-05-02T21:42:18.457Z,99890.53
2023-05-02T21:44:45.874Z,99906.06
2023-05-02T21:47:12.978Z,99913.34
2023-05-02T21:49:40.436Z,99916.25
2023-05-02T21:52:07.948Z,99918.34
2023-05-02T21:54:35.620Z,99916.72
2023-05-02T21:57:02.880Z,99920.47
2023-05-02T21:59:30.251Z,99923.97
2023-05-02T22:01:57.648Z,99926.66
2023-05-02T22:04:25.288Z,99928.72
2023-05-02T22:06:53.408Z,99930.81
2023-05-02T22:09:21.951Z,99937.50
2023-05-02T22:11:49.150Z,99935.88
2023-05-02T22:14:16.913Z,99948.72
2023-05-02T22:16:44.029Z,99950.81
2023-05-02T22:19:14.562Z,99951.06
2023-05-02T22:21:41.806Z,99959.56
2023-05-02T22:24:09.352Z,99955.47
2023-05-02T22:26:36.709Z,99961.31
2023-05-02T22:29:04.796Z,99966.69
2023-05-02T22:31:32.010Z,99967.19
2023-05-02T22:33:59.608Z,99960.97
2023-05-02T22:36:27.714Z,99959.56
2023-05-02T22:38:55.064Z,99960.59
2023-05-02T22:41:22.392Z,99956.06
2023-05-02T22:43:50.341Z,99964.34
2023-05-02T22:46:18.350Z,99961.09
2023-05-02T22:48:45.824Z,99962.38
2023-05-02T22:51:13.554Z,99963.16
2023-05-02T22:53:40.941Z,99966.91
2023-05-02T22:56:08.166Z,99961.53
2023-05-02T22:58:35.589Z,99965.06
2023-05-02T23:01:02.623Z,99969.81
2023-05-02T23:03:30.190Z,99970.63
2023-05-02T23:05:57.392Z,99964.09
2023-05-02T23:08:24.763Z,99970.75
2023-05-02T23:10:52.144Z,99969.34
2023-05-02T23:13:19.490Z,99968.75
2023-05-02T23:15:46.586Z,99967.09
2023-05-02T23:18:14.299Z,99966.06
2023-05-02T23:20:41.304Z,99976.25
2023-05-02T23:23:08.698Z,99976.25
2023-05-02T23:25:36.789Z,99972.94
2023-05-02T23:28:04.506Z,99973.41
2023-05-02T23:30:32.725Z,99970.94
2023-05-02T23:33:00.940Z,99975.50
2023-05-02T23:35:28.133Z,99965.22
2023-05-02T23:37:55.654Z,99977.59
2023-05-02T23:40:22.853Z,99968.13
2023-05-02T23:42:50.363Z,99967.28
2023-05-02T23:45:17.711Z,99969.97
2023-05-02T23:47:45.525Z,99967.78
2023-05-02T23:50:12.653Z,99967.78
2023-05-02T23:52:40.270Z,99969.88
2023-05-02T23:55:10.670Z,99959.34
2023-05-02T23:57:38.346Z,99969.25
